Time;durP1;ratioP1;P1;durP2;ratioP2;P2;SDS_P1;SDS_P2;PMS_P1;PMS_P2;Temp;Humidity;BMP_temperature;BMP_pressure;BME280_temperature;BME280_humidity;BME280_pressure;Samples;Min_cycle;Max_cycle;Signal;HPM_P1;HPM_P2
2023/09/11 00:02:48;;;;;;;2.42;2.15;;;;;;;8.50;83.13;96046.75;6198418;28;20050;-70
2023/09/11 00:06:05;;;;;;;2.58;2.38;;;;;;;8.51;83.03;96053.66;6200923;28;20248;-69
2023/09/11 00:09:12;;;;;;;2.63;2.10;;;;;;;8.41;83.08;96047.41;6199994;28;20054;-70
2023/09/11 00:12:18;;;;;;;2.50;2.30;;;;;;;8.39;83.14;96051.91;6200067;28;20054;-69
2023/09/11 00:15:23;;;;;;;1.83;1.73;;;;;;;8.40;83.19;96052.72;6198616;28;20566;-70
2023/09/11 00:18:27;;;;;;;2.30;2.10;;;;;;;8.33;83.56;96054.91;6197176;28;20422;-69
2023/09/11 00:21:35;;;;;;;2.53;2.08;;;;;;;8.33;83.73;96057.53;6197550;28;20050;-69
2023/09/11 00:24:40;;;;;;;2.40;2.20;;;;;;;8.33;84.08;96054.91;6197229;28;20042;-70
2023/09/11 00:27:45;;;;;;;2.67;1.90;;;;;;;8.32;84.02;96058.47;6196675;28;20366;-70
2023/09/11 00:30:49;;;;;;;4.60;2.35;;;;;;;8.32;84.39;96056.69;6196941;28;20046;-69
2023/09/11 00:33:55;;;;;;;2.88;2.25;;;;;;;8.36;84.44;96059.09;6196318;28;20042;-70
2023/09/11 00:36:59;;;;;;;2.30;2.10;;;;;;;8.37;84.49;96056.38;6196582;28;20046;-70
2023/09/11 00:40:01;;;;;;;2.13;1.92;;;;;;;8.36;84.69;96051.25;6194707;28;20137;-70
2023/09/11 00:43:07;;;;;;;;;;;;;;;8.39;85.07;96048.44;6196687;28;20418;-70
2023/09/11 00:46:08;;;;;;;2.22;1.95;;;;;;;8.31;84.57;96047.13;6196662;28;19917;-70
2023/09/11 00:49:10;;;;;;;3.25;2.38;;;;;;;8.23;84.36;96054.69;6195727;28;20043;-70
2023/09/11 00:52:14;;;;;;;3.63;2.35;;;;;;;8.20;84.82;96043.59;6195077;28;20054;-71
2023/09/11 00:55:19;;;;;;;5.90;2.53;;;;;;;8.20;85.04;96044.41;6196260;28;20043;-70
2023/09/11 00:58:23;;;;;;;4.28;2.80;;;;;;;8.25;85.09;96051.97;6195441;28;20038;-70
2023/09/11 01:01:27;;;;;;;3.42;3.13;;;;;;;8.25;85.16;96046.75;6195929;28;20081;-70
2023/09/11 01:04:31;;;;;;;3.72;3.20;;;;;;;8.24;85.41;96045.06;6195465;28;20153;-70
2023/09/11 01:07:32;;;;;;;;;;;;;;;8.23;85.62;96038.13;6194496;28;20061;-70
2023/09/11 01:10:39;;;;;;;4.15;3.40;;;;;;;8.26;85.52;96032.69;6195328;28;19921;-70
2023/09/11 01:13:46;;;;;;;4.30;3.35;;;;;;;8.28;85.43;96049.97;6195542;28;20054;-70
2023/09/11 01:17:05;;;;;;;5.20;3.38;;;;;;;8.27;85.46;96035.22;6195480;28;20057;-70
2023/09/11 01:20:44;;;;;;;9.43;4.32;;;;;;;8.31;85.70;96035.81;6195601;28;20073;-70
2023/09/11 01:24:08;;;;;;;8.48;4.13;;;;;;;8.31;85.71;96051.56;6195858;28;20046;-70
2023/09/11 01:27:37;;;;;;;4.93;3.85;;;;;;;8.33;85.91;96060.16;6195380;28;20054;-70
2023/09/11 01:30:42;;;;;;;6.10;4.32;;;;;;;8.32;85.96;96080.28;6195388;28;20413;-70
2023/09/11 01:33:59;;;;;;;6.75;3.63;;;;;;;8.35;86.02;96089.72;6195643;28;20448;-70
2023/09/11 01:37:05;;;;;;;5.30;3.45;;;;;;;8.38;85.36;96091.28;6194717;28;20054;-70
2023/09/11 01:40:07;;;;;;;5.40;3.60;;;;;;;8.29;85.66;96095.38;6193679;28;20057;-70
2023/09/11 01:43:15;;;;;;;7.78;3.17;;;;;;;8.17;85.57;96091.81;6195989;28;20129;-70
2023/09/11 01:46:19;;;;;;;4.15;2.95;;;;;;;8.20;85.91;96094.22;6195808;28;20042;-70
2023/09/11 01:49:21;;;;;;;3.42;2.58;;;;;;;8.21;85.90;96092.44;6194859;28;20053;-70
2023/09/11 01:52:26;;;;;;;3.47;2.83;;;;;;;8.22;86.01;96100.19;6195559;28;20046;-70
2023/09/11 01:55:32;;;;;;;9.52;2.63;;;;;;;8.24;86.12;96102.72;6194867;28;20046;-70
2023/09/11 01:58:35;;;;;;;3.10;2.47;;;;;;;8.22;86.14;96104.59;6194628;28;20057;-70
2023/09/11 02:01:38;;;;;;;4.90;2.50;;;;;;;8.18;86.05;96097.88;6195434;28;20053;-70
2023/09/11 02:04:42;;;;;;;4.38;2.70;;;;;;;8.22;86.26;96099.38;6210343;28;20470;-70
2023/09/11 02:07:48;;;;;;;3.50;2.40;;;;;;;8.23;86.21;96111.50;6217737;28;20045;-70
2023/09/11 02:10:53;;;;;;;4.85;2.58;;;;;;;8.23;86.39;96108.91;6219331;28;20042;-71
2023/09/11 02:13:58;;;;;;;6.28;2.83;;;;;;;8.19;86.17;96112.69;6219454;28;20049;-71
2023/09/11 02:17:02;;;;;;;3.88;2.85;;;;;;;8.22;85.96;96120.31;6221177;28;20608;-69
2023/09/11 02:20:07;;;;;;;6.13;2.70;;;;;;;8.18;86.28;96097.88;6223490;28;20513;-70
2023/09/11 02:23:16;;;;;;;9.20;2.85;;;;;;;8.19;86.09;96079.44;6223820;28;20046;-71
2023/09/11 02:26:22;;;;;;;4.55;2.70;;;;;;;8.19;86.20;96081.22;6206550;28;20038;-70
2023/09/11 02:29:23;;;;;;;3.97;2.85;;;;;;;8.19;86.30;96057.66;6223232;28;20049;-70
2023/09/11 02:32:25;;;;;;;6.68;3.22;;;;;;;8.30;86.13;96055.97;6222700;28;20058;-70
2023/09/11 02:35:28;;;;;;;8.50;3.13;;;;;;;8.34;86.46;96048.72;6205804;28;20425;-70
2023/09/11 02:38:32;;;;;;;4.72;3.03;;;;;;;8.41;86.40;96042.16;6222858;28;20057;-70
2023/09/11 02:41:36;;;;;;;5.50;3.22;;;;;;;8.51;86.57;96048.41;6223767;28;20645;-70
2023/09/11 02:44:40;;;;;;;4.93;2.80;;;;;;;8.49;86.39;96052.94;6223349;28;20461;-69
2023/09/11 02:47:41;;;;;;;4.47;2.97;;;;;;;8.61;86.37;96063.53;6223440;28;20532;-70
2023/09/11 02:50:47;;;;;;;4.15;3.00;;;;;;;8.69;86.74;96067.28;6223323;28;20037;-70
2023/09/11 02:53:53;;;;;;;4.35;2.70;;;;;;;8.79;86.74;96080.56;6223308;28;20058;-69
2023/09/11 02:56:57;;;;;;;6.35;3.25;;;;;;;8.88;86.85;96087.78;6205267;28;20188;-69
2023/09/11 03:00:05;;;;;;;4.43;2.80;;;;;;;8.92;86.81;96093.69;6206007;28;20038;-69
2023/09/11 03:03:09;;;;;;;4.65;3.42;;;;;;;8.97;86.83;96100.28;6222702;28;20049;-70
2023/09/11 03:06:13;;;;;;;6.53;4.25;;;;;;;8.95;86.74;96096.91;6223258;28;20037;-70
2023/09/11 03:09:16;;;;;;;6.85;5.53;;;;;;;8.96;87.12;96105.63;6224029;28;20493;-69
2023/09/11 03:12:18;;;;;;;5.25;4.25;;;;;;;9.05;87.26;96109.38;6223837;28;20041;-69
2023/09/11 03:15:25;;;;;;;7.53;4.10;;;;;;;9.13;87.37;96102.63;6223567;28;20034;-71
2023/09/11 03:18:29;;;;;;;5.47;3.75;;;;;;;9.11;87.43;96093.19;6222825;28;20517;-69
2023/09/11 03:21:31;;;;;;;6.80;3.97;;;;;;;9.29;87.45;96105.00;6204681;28;20428;-69
2023/09/11 03:24:33;;;;;;;7.03;6.13;;;;;;;9.46;87.51;96102.97;6204283;28;20525;-70
2023/09/11 03:27:40;;;;;;;10.80;7.75;;;;;;;9.59;87.49;96108.97;6222960;28;20417;-69
2023/09/11 03:30:44;;;;;;;9.75;7.35;;;;;;;9.74;87.29;96105.25;6222953;28;20041;-69
2023/09/11 03:33:48;;;;;;;35.03;17.77;;;;;;;9.84;87.08;96111.47;6221535;28;20556;-70
2023/09/11 03:36:54;;;;;;;47.17;25.17;;;;;;;9.85;86.61;96105.28;6222540;28;20046;-70
2023/09/11 03:39:58;;;;;;;67.10;32.75;;;;;;;9.93;86.78;96114.38;6222261;28;20041;-70
2023/09/11 03:43:00;;;;;;;47.95;24.38;;;;;;;9.97;86.69;96118.47;6221300;28;20057;-70
2023/09/11 03:46:09;;;;;;;34.53;18.23;;;;;;;9.86;86.25;96120.09;6221898;28;20038;-71
2023/09/11 03:49:10;;;;;;;32.33;19.25;;;;;;;9.80;86.37;96133.69;6221278;28;20065;-69
2023/09/11 03:52:14;;;;;;;26.67;15.98;;;;;;;9.78;86.23;96135.56;6203992;28;20054;-69
2023/09/11 03:55:19;;;;;;;25.55;15.40;;;;;;;9.77;86.32;96139.16;6221870;28;20045;-69
2023/09/11 03:58:20;;;;;;;19.25;10.20;;;;;;;9.73;86.40;96142.94;6221830;28;20644;-69
2023/09/11 04:01:24;;;;;;;;;;;;;;;9.69;86.11;96151.19;6222318;28;20549;-69
2023/09/11 04:04:27;;;;;;;5.53;4.25;;;;;;;9.57;86.30;96148.50;6221668;28;19921;-69
2023/09/11 04:07:35;;;;;;;8.60;3.47;;;;;;;9.47;86.18;96142.22;6221284;28;20053;-70
2023/09/11 04:10:36;;;;;;;2.88;2.63;;;;;;;9.42;86.12;96144.34;6220844;28;20053;-69
2023/09/11 04:13:41;;;;;;;3.30;2.63;;;;;;;9.38;86.26;96146.34;6221574;28;20057;-70
2023/09/11 04:16:47;;;;;;;2.70;2.50;;;;;;;9.37;86.28;96147.31;6221651;28;20046;-70
2023/09/11 04:19:48;;;;;;;10.95;6.70;;;;;;;9.41;86.44;96147.94;6220646;28;20137;-70
2023/09/11 04:22:53;;;;;;;7.05;5.38;;;;;;;9.47;86.23;96150.09;6220659;28;20139;-69
2023/09/11 04:25:57;;;;;;;4.20;2.90;;;;;;;9.55;86.08;96154.81;6221294;28;20046;-69
2023/09/11 04:28:59;;;;;;;2.47;2.28;;;;;;;9.53;86.12;96156.69;6220243;28;20057;-70
2023/09/11 04:32:04;;;;;;;2.58;2.35;;;;;;;9.66;85.90;96162.75;6221268;28;20050;-69
2023/09/11 04:35:06;;;;;;;5.07;3.85;;;;;;;9.85;85.94;96163.09;6220525;28;20184;-70
2023/09/11 04:38:07;;;;;;;3.35;2.83;;;;;;;10.03;85.77;96160.06;6219999;28;20049;-70
2023/09/11 04:41:11;;;;;;;4.53;2.70;;;;;;;10.18;85.04;96164.16;6220342;28;20053;-70
2023/09/11 04:44:16;;;;;;;2.30;1.80;;;;;;;10.23;84.76;96162.03;6219926;28;20081;-70
2023/09/11 04:47:21;;;;;;;1.85;1.60;;;;;;;10.32;84.35;96171.88;6220456;28;20057;-70
2023/09/11 04:50:25;;;;;;;1.40;1.30;;;;;;;10.46;83.92;96170.03;6220208;28;20057;-70
2023/09/11 04:53:26;;;;;;;4.80;1.67;;;;;;;10.66;83.55;96168.50;6219891;28;20429;-69
2023/09/11 04:56:31;;;;;;;2.28;2.08;;;;;;;10.83;82.99;96165.41;6220669;28;20425;-69
2023/09/11 04:59:32;;;;;;;1.75;1.60;;;;;;;10.92;82.68;96174.38;6220014;28;20050;-69
2023/09/11 05:02:34;;;;;;;1.88;1.40;;;;;;;10.90;82.30;96166.63;6219677;28;20050;-70
2023/09/11 05:05:40;;;;;;;2.85;1.77;;;;;;;10.79;81.91;96169.25;6219532;28;20505;-70
2023/09/11 05:08:44;;;;;;;3.03;1.83;;;;;;;10.74;82.03;96182.75;6219997;28;20054;-69
2023/09/11 05:11:45;;;;;;;3.25;2.00;;;;;;;10.73;82.07;96186.34;6219910;28;20406;-69
2023/09/11 05:14:47;;;;;;;2.67;1.92;;;;;;;10.85;82.05;96184.56;6219850;28;20053;-70
2023/09/11 05:17:53;;;;;;;1.20;1.10;;;;;;;10.88;81.74;96184.31;6219594;28;20064;-68
2023/09/11 05:21:00;;;;;;;3.78;2.17;;;;;;;10.95;81.70;96185.50;6220104;28;20050;-68
2023/09/11 05:24:07;;;;;;;2.10;1.65;;;;;;;10.95;81.36;96174.97;6220413;28;20052;-68
2023/09/11 05:27:16;;;;;;;5.30;2.60;;;;;;;10.96;81.14;96189.84;6219968;28;20560;-68
2023/09/11 05:30:18;;;;;;;2.42;1.50;;;;;;;10.76;81.12;96170.31;6219036;28;20050;-69
2023/09/11 05:33:28;;;;;;;2.35;1.70;;;;;;;10.71;81.21;96185.63;6219680;28;20524;-68
2023/09/11 05:36:31;;;;;;;8.48;5.38;;;;;;;10.69;81.38;96182.25;6219436;28;20046;-70
2023/09/11 05:39:35;;;;;;;3.25;1.98;;;;;;;10.70;81.55;96181.31;6220064;28;20046;-69
2023/09/11 05:42:39;;;;;;;2.85;1.92;;;;;;;10.73;81.45;96178.44;6219822;28;20545;-69
2023/09/11 05:45:42;;;;;;;2.40;2.20;;;;;;;10.73;81.37;96181.09;6219018;28;20052;-68
2023/09/11 05:48:44;;;;;;;7.38;2.40;;;;;;;10.79;81.16;96183.25;6219418;28;20092;-68
2023/09/11 05:51:45;;;;;;;9.02;6.97;;;;;;;10.81;81.11;96177.00;6221249;28;20056;-68
2023/09/11 05:54:49;;;;;;;3.25;2.67;;;;;;;10.84;81.20;96179.41;6224850;28;20069;-68
2023/09/11 05:57:50;;;;;;;2.65;2.38;;;;;;;10.86;80.94;96180.13;6223999;28;20061;-69
2023/09/11 06:00:54;;;;;;;2.67;2.45;;;;;;;10.82;80.67;96176.91;6224877;28;20041;-69
2023/09/11 06:03:55;;;;;;;2.75;2.00;;;;;;;10.90;80.71;96177.16;6223862;28;20053;-68
2023/09/11 06:06:59;;;;;;;3.78;2.95;;;;;;;11.00;80.46;96182.53;6225025;28;20049;-69
2023/09/11 06:10:00;;;;;;;3.75;2.83;;;;;;;11.08;80.41;96174.88;6224054;28;20049;-70
2023/09/11 06:13:07;;;;;;;24.52;14.98;;;;;;;11.14;80.23;96173.56;6224401;28;20061;-68
2023/09/11 06:16:13;;;;;;;6.97;4.82;;;;;;;11.16;80.07;96183.03;6223528;28;20046;-70
2023/09/11 06:19:19;;;;;;;3.55;2.60;;;;;;;11.19;79.72;96166.97;6222676;28;20049;-68
2023/09/11 06:22:22;;;;;;;4.03;3.05;;;;;;;11.37;79.57;96174.38;6223639;28;20057;-69
2023/09/11 06:25:24;;;;;;;5.03;3.17;;;;;;;11.51;79.28;96174.13;6205659;28;20260;-69
2023/09/11 06:28:25;;;;;;;2.90;2.55;;;;;;;11.58;79.21;96172.69;6223226;28;20453;-69
2023/09/11 06:31:31;;;;;;;;;;;;;;;11.65;79.04;96173.84;6224388;28;20425;-69
2023/09/11 06:34:36;;;;;;;2.67;2.40;;;;;;;11.52;78.91;96167.91;6223561;28;19921;-69
2023/09/11 06:37:41;;;;;;;2.90;2.00;;;;;;;11.49;78.94;96168.13;6223143;28;20060;-69
2023/09/11 06:40:43;;;;;;;3.88;2.42;;;;;;;11.65;78.64;96168.59;6223001;28;20065;-69
2023/09/11 06:43:47;;;;;;;2.67;2.45;;;;;;;11.88;78.29;96168.56;6222790;28;20508;-69
2023/09/11 06:46:48;;;;;;;2.78;2.00;;;;;;;12.17;77.62;96179.34;6222077;28;20056;-68
2023/09/11 06:49:49;;;;;;;5.00;3.83;;;;;;;12.35;76.75;96171.75;6223235;28;20184;-68
2023/09/11 06:52:53;;;;;;;3.05;1.90;;;;;;;12.33;76.11;96173.66;6223102;28;20433;-68
2023/09/11 06:55:55;;;;;;;2.08;1.88;;;;;;;12.21;76.09;96174.69;6222792;28;20049;-70
2023/09/11 06:58:59;;;;;;;5.40;3.42;;;;;;;12.09;76.13;96174.72;6222846;28;20073;-68
2023/09/11 07:02:03;;;;;;;2.75;1.70;;;;;;;12.00;76.02;96178.13;6222470;28;20053;-68
2023/09/11 07:05:05;;;;;;;6.07;3.85;;;;;;;11.88;76.11;96173.84;6223294;28;20046;-69
2023/09/11 07:08:14;;;;;;;6.10;4.13;;;;;;;11.82;76.60;96174.31;6223062;28;20042;-69
2023/09/11 07:11:18;;;;;;;3.83;2.42;;;;;;;11.86;76.57;96181.88;6222536;28;20046;-69
2023/09/11 07:14:23;;;;;;;1.52;1.40;;;;;;;11.92;76.17;96183.19;6223003;28;20046;-70
2023/09/11 07:17:27;;;;;;;2.22;1.45;;;;;;;12.03;76.25;96177.00;6223380;28;20046;-69
2023/09/11 07:20:30;;;;;;;3.33;2.22;;;;;;;12.18;76.30;96182.84;6205922;28;20049;-69
2023/09/11 07:23:33;;;;;;;1.75;1.40;;;;;;;12.35;76.13;96183.13;6222266;28;20140;-69
2023/09/11 07:26:35;;;;;;;1.67;1.33;;;;;;;12.38;75.70;96176.75;6221877;28;20080;-69
2023/09/11 07:29:37;;;;;;;2.00;1.33;;;;;;;12.36;75.67;96179.50;6221992;28;20042;-69
2023/09/11 07:32:41;;;;;;;1.52;1.42;;;;;;;12.33;75.95;96178.94;6222700;28;20057;-69
2023/09/11 07:35:47;;;;;;;2.08;1.65;;;;;;;12.33;75.65;96173.66;6222528;28;20134;-69
2023/09/11 07:38:53;;;;;;;1.92;1.70;;;;;;;12.14;75.10;96166.41;6222390;28;20037;-69
2023/09/11 07:41:54;;;;;;;;;;;;;;;12.27;75.60;96180.28;6222231;28;20050;-69
2023/09/11 07:44:58;;;;;;;2.58;1.45;;;;;;;12.32;75.30;96172.00;6221706;28;20312;-69
2023/09/11 07:47:59;;;;;;;;;;;;;;;12.45;75.19;96177.06;6221783;28;20061;-69
2023/09/11 07:51:03;;;;;;;1.40;1.10;;;;;;;12.35;74.66;96174.38;6221488;28;19921;-69
2023/09/11 07:54:04;;;;;;;2.83;1.70;;;;;;;12.30;75.02;96174.75;6221504;28;20049;-70
2023/09/11 07:57:12;;;;;;;;;;;;;;;12.27;74.93;96171.53;6222366;28;20054;-70
2023/09/11 08:00:17;;;;;;;5.25;2.20;;;;;;;12.21;75.33;96178.16;6222095;28;19921;-69
2023/09/11 08:03:21;;;;;;;3.53;2.15;;;;;;;11.99;75.19;96155.34;6221724;28;20106;-69
2023/09/11 08:06:23;;;;;;;2.28;2.08;;;;;;;12.06;75.74;96172.34;6220535;28;20060;-70
2023/09/11 08:09:27;;;;;;;3.10;2.08;;;;;;;11.95;76.11;96164.47;6221646;28;20038;-69
2023/09/11 08:12:29;;;;;;;2.58;2.38;;;;;;;11.78;76.18;96167.63;6203452;28;20136;-69
2023/09/11 08:15:31;;;;;;;3.75;2.90;;;;;;;11.69;76.95;96164.75;6220020;28;20046;-69
2023/09/11 08:18:37;;;;;;;;;;;;;;;11.77;76.79;96152.75;6221830;28;20057;-70
2023/09/11 08:21:38;;;;;;;6.33;2.83;;;;;;;11.77;76.37;96150.09;6221239;28;19921;-70
2023/09/11 08:24:40;;;;;;;4.82;4.05;;;;;;;11.89;76.04;96144.72;6220624;28;20057;-70
2023/09/11 08:27:44;;;;;;;9.93;4.72;;;;;;;11.95;76.11;96145.19;6221204;28;20046;-70
2023/09/11 08:30:47;;;;;;;7.28;3.83;;;;;;;11.93;75.91;96145.31;6219858;28;20054;-70
2023/09/11 08:33:54;;;;;;;5.55;3.38;;;;;;;11.85;76.02;96147.69;6220789;28;20054;-70
2023/09/11 08:36:58;;;;;;;5.47;3.65;;;;;;;11.77;75.79;96140.41;6220937;28;20042;-70
2023/09/11 08:40:03;;;;;;;8.93;4.53;;;;;;;11.66;75.84;96138.66;6221056;28;20069;-70
2023/09/11 08:43:08;;;;;;;5.60;3.92;;;;;;;11.66;75.54;96141.28;6220959;28;20133;-70
2023/09/11 08:46:16;;;;;;;;;;;;;;;11.90;75.05;96145.56;6221042;28;20054;-69
2023/09/11 08:49:21;;;;;;;16.25;9.15;;;;;;;11.98;74.01;96137.03;6219070;28;19921;-71
2023/09/11 08:52:22;;;;;;;15.85;10.50;;;;;;;11.99;73.70;96143.97;6219740;28;20425;-71
2023/09/11 08:55:33;;;;;;;14.80;9.52;;;;;;;11.85;73.83;96132.75;6220762;28;20086;-70
2023/09/11 08:58:36;;;;;;;19.25;12.02;;;;;;;11.86;73.73;96142.34;6220571;28;20045;-70
2023/09/11 09:01:45;;;;;;;17.67;10.20;;;;;;;11.77;74.12;96144.84;6220398;28;20433;-70
2023/09/11 09:04:53;;;;;;;16.55;9.50;;;;;;;11.72;74.29;96149.63;6220441;28;20052;-70
2023/09/11 09:07:56;;;;;;;12.60;7.70;;;;;;;11.69;74.17;96138.41;6219687;28;20050;-69
2023/09/11 09:11:02;;;;;;;14.57;8.73;;;;;;;11.72;74.95;96147.00;6220424;28;20046;-71
2023/09/11 09:14:09;;;;;;;16.95;8.52;;;;;;;11.73;74.89;96149.53;6221169;28;20046;-70
2023/09/11 09:17:15;;;;;;;11.60;6.45;;;;;;;11.73;74.80;96138.16;6222457;28;20041;-70
2023/09/11 09:20:20;;;;;;;10.27;6.72;;;;;;;11.68;75.12;96133.25;6221726;28;20054;-69
2023/09/11 09:23:36;;;;;;;10.38;5.80;;;;;;;11.72;74.98;96145.22;6222635;28;20049;-69
2023/09/11 09:27:02;;;;;;;7.18;4.75;;;;;;;11.69;74.67;96146.31;6220625;28;20048;-69
2023/09/11 09:30:18;;;;;;;7.68;5.20;;;;;;;11.66;74.98;96149.19;6221537;28;20046;-69
2023/09/11 09:33:22;;;;;;;9.88;5.82;;;;;;;11.67;74.50;96145.59;6219944;28;20053;-69
2023/09/11 09:36:24;;;;;;;11.82;6.88;;;;;;;11.59;74.32;96145.38;6219761;28;20045;-68
2023/09/11 09:39:28;;;;;;;7.60;4.72;;;;;;;11.56;74.55;96147.41;6219277;28;20050;-69
2023/09/11 09:42:42;;;;;;;8.48;5.35;;;;;;;11.57;74.57;96139.38;6219702;28;20045;-69
2023/09/11 09:45:50;;;;;;;7.80;5.18;;;;;;;11.63;74.68;96141.53;6219864;28;20038;-69
2023/09/11 09:48:55;;;;;;;9.10;4.20;;;;;;;11.66;74.52;96149.19;6219124;28;20042;-69
2023/09/11 09:52:03;;;;;;;11.65;5.70;;;;;;;11.77;74.62;96144.84;6220076;28;20050;-68
2023/09/11 09:55:08;;;;;;;11.63;7.05;;;;;;;11.82;73.98;96132.97;6219808;28;20730;-70
2023/09/11 09:58:14;;;;;;;6.30;4.18;;;;;;;11.78;73.75;96134.19;6219216;28;20211;-69
2023/09/11 10:01:21;;;;;;;4.07;3.28;;;;;;;11.76;73.30;96132.63;6219755;28;20046;-69
2023/09/11 10:04:22;;;;;;;7.72;3.40;;;;;;;11.84;72.41;96140.75;6219926;28;20271;-69
2023/09/11 10:07:50;;;;;;;6.60;3.97;;;;;;;11.86;72.95;96133.56;6218668;28;20042;-69
2023/09/11 10:10:52;;;;;;;4.90;2.80;;;;;;;11.84;72.56;96132.84;6218748;28;20057;-69
2023/09/11 10:14:00;;;;;;;2.58;2.00;;;;;;;11.79;72.24;96135.84;6219583;28;20045;-70
2023/09/11 10:17:06;;;;;;;9.52;6.30;;;;;;;11.83;72.11;96139.06;6208906;28;20513;-68
2023/09/11 10:20:09;;;;;;;8.07;4.40;;;;;;;11.82;71.97;96134.75;6192433;28;20492;-69
2023/09/11 10:23:12;;;;;;;3.80;2.90;;;;;;;11.74;72.16;96139.81;6193690;28;20046;-69
2023/09/11 10:26:22;;;;;;;5.88;3.28;;;;;;;11.79;72.19;96143.75;6195194;28;20501;-69
2023/09/11 10:29:56;;;;;;;4.85;2.80;;;;;;;11.85;71.64;96134.50;6194994;28;20030;-69
2023/09/11 10:33:02;;;;;;;7.30;2.70;;;;;;;11.71;72.04;96137.44;6177016;28;20054;-69
2023/09/11 10:36:11;;;;;;;7.18;3.60;;;;;;;11.80;72.18;96134.03;6194077;28;20452;-69
2023/09/11 10:39:15;;;;;;;5.38;3.58;;;;;;;11.73;72.24;96140.78;6196000;28;20042;-70
2023/09/11 10:42:20;;;;;;;12.13;5.85;;;;;;;11.72;72.61;96136.47;6198880;28;20050;-71
2023/09/11 10:45:27;;;;;;;5.32;3.92;;;;;;;11.78;72.31;96136.00;6199380;28;20502;-70
2023/09/11 10:48:30;;;;;;;5.75;3.63;;;;;;;11.71;72.50;96134.81;6198973;28;20050;-69
2023/09/11 10:51:37;;;;;;;5.38;3.08;;;;;;;11.62;72.89;96142.47;6199213;28;20050;-70
2023/09/11 10:54:40;;;;;;;4.13;2.97;;;;;;;11.53;73.24;96143.22;6199055;28;20050;-69
2023/09/11 10:57:44;;;;;;;4.65;3.17;;;;;;;11.52;73.41;96151.25;6199353;28;20092;-69
2023/09/11 11:00:45;;;;;;;8.38;3.35;;;;;;;11.53;73.62;96155.56;6198756;28;20406;-69
2023/09/11 11:03:46;;;;;;;14.35;9.35;;;;;;;11.53;73.87;96153.78;6198515;28;20050;-69
2023/09/11 11:06:56;;;;;;;9.65;5.22;;;;;;;11.61;73.56;96146.09;6198623;28;20055;-69
2023/09/11 11:10:01;;;;;;;8.63;3.88;;;;;;;11.71;72.45;96145.34;6198570;28;20043;-69
2023/09/11 11:13:11;;;;;;;9.10;4.43;;;;;;;11.59;72.22;96144.53;6197920;28;20132;-69
2023/09/11 11:16:15;;;;;;;5.13;3.67;;;;;;;11.55;72.36;96146.59;6198035;28;20042;-69
2023/09/11 11:19:25;;;;;;;8.32;3.22;;;;;;;11.48;72.35;96145.41;6197969;28;20050;-69
2023/09/11 11:22:33;;;;;;;5.05;2.40;;;;;;;11.47;72.03;96141.09;6198202;28;20149;-68
2023/09/11 11:25:40;;;;;;;5.07;2.50;;;;;;;11.49;71.80;96141.78;6198843;28;20058;-68
2023/09/11 11:28:45;;;;;;;5.75;2.85;;;;;;;11.48;71.98;96152.47;6199412;28;20553;-70
2023/09/11 11:31:53;;;;;;;5.00;2.65;;;;;;;11.55;71.21;96157.13;6198418;28;20054;-70
2023/09/11 11:34:55;;;;;;;7.47;3.17;;;;;;;11.31;72.07;96138.00;6197349;28;20429;-71
2023/09/11 11:38:01;;;;;;;;;;;;;;;11.41;71.75;96149.50;6198672;28;20455;-70
2023/09/11 11:41:10;;;;;;;4.10;2.80;;;;;;;11.26;71.51;96124.34;6198171;28;19925;-69
2023/09/11 11:44:14;;;;;;;3.50;2.60;;;;;;;11.32;72.26;96150.19;6197197;28;20458;-69
2023/09/11 11:47:21;;;;;;;6.95;3.63;;;;;;;11.38;72.16;96155.84;6198015;28;20502;-69
2023/09/11 11:50:25;;;;;;;8.40;3.60;;;;;;;11.43;72.10;96147.56;6197681;28;20418;-70
2023/09/11 11:53:30;;;;;;;;;;;;;;;11.48;72.28;96155.09;6198377;28;20052;-69
2023/09/11 11:56:31;;;;;;;4.28;2.97;;;;;;;11.43;72.42;96144.91;6197840;28;19921;-70
2023/09/11 11:59:39;;;;;;;3.35;2.47;;;;;;;11.45;72.56;96156.19;6197171;28;20149;-70
2023/09/11 12:02:43;;;;;;;4.55;3.45;;;;;;;11.35;72.92;96140.28;6197546;28;20050;-69
2023/09/11 12:05:47;;;;;;;2.88;2.03;;;;;;;11.45;73.44;96158.81;6197503;28;20564;-69
2023/09/11 12:08:51;;;;;;;3.65;2.40;;;;;;;11.37;73.83;96153.31;6197674;28;20129;-69
2023/09/11 12:11:53;;;;;;;2.63;2.00;;;;;;;11.43;73.68;96150.19;6196724;28;20046;-69
2023/09/11 12:14:58;;;;;;;4.28;2.60;;;;;;;11.40;74.29;96145.16;6195898;28;20096;-69
2023/09/11 12:18:01;;;;;;;2.65;1.90;;;;;;;11.34;74.59;96153.56;6196917;28;20058;-70
2023/09/11 12:21:04;;;;;;;4.18;2.20;;;;;;;11.34;74.56;96156.19;6196902;28;20046;-70
2023/09/11 12:24:09;;;;;;;5.63;2.33;;;;;;;11.29;74.45;96147.81;6195151;28;20050;-69
2023/09/11 12:27:11;;;;;;;7.18;2.53;;;;;;;11.31;74.27;96145.91;6195464;28;20181;-68
2023/09/11 12:30:15;;;;;;;7.05;3.05;;;;;;;11.38;74.13;96153.22;6196592;28;20100;-69
2023/09/11 12:33:27;;;;;;;7.72;3.45;;;;;;;11.27;74.24;96144.50;6196480;28;20054;-68
2023/09/11 12:36:33;;;;;;;11.88;3.88;;;;;;;11.41;73.98;96154.75;6195393;28;20050;-69
2023/09/11 12:39:35;;;;;;;9.05;3.80;;;;;;;11.40;73.93;96151.25;6196688;28;20054;-69
2023/09/11 12:42:37;;;;;;;8.98;3.42;;;;;;;11.46;73.92;96158.72;6196751;28;20054;-69
2023/09/11 12:45:41;;;;;;;10.95;4.15;;;;;;;11.36;74.15;96141.94;6194606;28;20205;-69
2023/09/11 12:48:45;;;;;;;;;;;;;;;11.45;74.03;96150.91;6196409;28;20057;-69
2023/09/11 12:51:54;;;;;;;6.50;3.10;;;;;;;11.40;74.26;96147.81;6197174;28;20364;-68
2023/09/11 12:54:58;;;;;;;4.55;2.10;;;;;;;11.42;74.60;96145.88;6196140;28;20109;-69
2023/09/11 12:58:02;;;;;;;6.00;2.33;;;;;;;11.41;74.36;96152.13;6194364;28;20054;-69
2023/09/11 13:01:10;;;;;;;7.72;3.10;;;;;;;11.39;74.75;96156.66;6195793;28;20050;-69
2023/09/11 13:04:20;;;;;;;12.45;3.67;;;;;;;11.36;75.07;96152.47;6195925;28;20058;-69
2023/09/11 13:07:24;;;;;;;4.68;2.65;;;;;;;11.31;75.09;96153.81;6195489;28;20062;-68
2023/09/11 13:10:26;;;;;;;3.88;2.50;;;;;;;11.28;75.04;96159.31;6195945;28;20047;-70
2023/09/11 13:13:28;;;;;;;4.63;2.65;;;;;;;11.32;74.84;96161.56;6196154;28;20046;-69
2023/09/11 13:16:33;;;;;;;5.38;2.80;;;;;;;11.16;75.41;96164.59;6195604;28;20050;-68
2023/09/11 13:19:39;;;;;;;8.57;3.15;;;;;;;11.20;75.44;96168.66;6196011;28;20566;-70
2023/09/11 13:22:44;;;;;;;10.05;3.30;;;;;;;11.19;75.19;96164.34;6195617;28;20046;-69
2023/09/11 13:25:48;;;;;;;7.43;3.30;;;;;;;10.98;75.22;96137.06;6195220;28;20050;-69
2023/09/11 13:28:50;;;;;;;13.20;3.85;;;;;;;11.14;75.15;96163.88;6195626;28;20045;-69
2023/09/11 13:31:51;;;;;;;7.70;3.20;;;;;;;11.00;75.43;96164.94;6195378;28;20053;-69
2023/09/11 13:34:52;;;;;;;12.30;4.28;;;;;;;11.00;75.67;96167.56;6194890;28;20370;-69
2023/09/11 13:37:56;;;;;;;;;;;;;;;11.14;74.58;96171.75;6196095;28;20066;-70
2023/09/11 13:41:00;;;;;;;7.95;4.10;;;;;;;11.00;75.20;96166.75;6195127;28;19918;-70
2023/09/11 13:44:09;;;;;;;7.85;3.60;;;;;;;10.95;75.65;96168.88;6195553;28;20200;-69
2023/09/11 13:47:12;;;;;;;13.93;4.75;;;;;;;10.93;75.60;96165.56;6195449;28;20045;-69
2023/09/11 13:50:17;;;;;;;9.48;4.43;;;;;;;10.96;75.47;96170.59;6195151;28;20053;-69
2023/09/11 13:53:24;;;;;;;10.43;4.32;;;;;;;10.93;75.44;96170.81;6195424;28;20049;-70
2023/09/11 13:56:26;;;;;;;11.82;4.60;;;;;;;10.87;75.76;96171.28;6194689;28;20441;-68
2023/09/11 13:59:30;;;;;;;10.38;4.82;;;;;;;10.86;75.76;96170.44;6194854;28;20054;-69
2023/09/11 14:02:36;;;;;;;8.30;4.30;;;;;;;10.77;76.02;96155.38;6194631;28;20430;-69
2023/09/11 14:05:40;;;;;;;11.35;4.50;;;;;;;10.85;75.85;96165.31;6195231;28;20043;-69
2023/09/11 14:08:41;;;;;;;8.65;4.60;;;;;;;10.82;75.95;96157.66;6195094;28;20051;-69
2023/09/11 14:11:45;;;;;;;9.48;4.35;;;;;;;10.83;75.87;96159.31;6195377;28;20070;-70
2023/09/11 14:14:51;;;;;;;;;;;;;;;10.79;75.89;96154.28;6200075;28;20034;-70
2023/09/11 14:17:57;;;;;;;9.38;4.72;;;;;;;10.75;75.83;96152.84;6199997;28;19921;-70
2023/09/11 14:21:01;;;;;;;9.18;4.90;;;;;;;10.68;76.39;96154.28;6199696;28;20077;-69
2023/09/11 14:24:04;;;;;;;9.40;5.72;;;;;;;10.75;76.17;96147.56;6199757;28;20054;-68
2023/09/11 14:27:09;;;;;;;6.75;4.53;;;;;;;10.73;75.78;96144.25;6199790;28;20469;-68
2023/09/11 14:30:13;;;;;;;6.25;3.92;;;;;;;10.77;75.84;96147.47;6199861;28;20046;-69
2023/09/11 14:33:19;;;;;;;5.03;4.30;;;;;;;10.72;75.78;96153.06;6199290;28;20050;-70
2023/09/11 14:36:26;;;;;;;6.57;3.63;;;;;;;10.73;75.59;96154.78;6199844;28;20485;-69